Ontario, Ohio
Current Conditions -  °F | °C
As of 8:52 PM on Saturday 22 Nov 2014 (Local Time) from KMFD Reporting Station
Overcast Overcast  
Wind Chill: 42°   Ceiling: 4100
Heat Index: 48°   Visibility: 10mi
Dew Point: 37°   Wind: 15mph
Humidity: 66%   Direction: 180°S
Pressure: 30.04"   Gusts: NA
Location:  40.76°N, 82.59°W
Report Text: KMFD 230152Z 18013KT 10SM OVC041 09/03 A3004 RMK AO2 SLP181 T00890028
Loading
Personal Weather Stations






























Interactive Weather Map New forecast layout! Learn more

10-Day Weather Forecast

Advertisements
Track Severe Weather on mobile